sensor_id;sensor_type;location;lat;lon;timestamp;temperature;humidity
36416;DHT22;22447;44.530;18.620;2022-12-29T00:01:37;3.10;99.90
36416;DHT22;22447;44.530;18.620;2022-12-29T00:04:04;3.00;99.90
36416;DHT22;22447;44.530;18.620;2022-12-29T00:06:30;3.00;99.90
36416;DHT22;22447;44.530;18.620;2022-12-29T00:08:56;3.00;99.90
36416;DHT22;22447;44.530;18.620;2022-12-29T00:11:26;3.00;99.90
36416;DHT22;22447;44.530;18.620;2022-12-29T00:13:53;2.90;99.90
36416;DHT22;22447;44.530;18.620;2022-12-29T00:16:42;2.90;99.90
36416;DHT22;22447;44.530;18.620;2022-12-29T00:19:09;2.90;99.90
36416;DHT22;22447;44.530;18.620;2022-12-29T00:21:54;3.00;99.90
36416;DHT22;22447;44.530;18.620;2022-12-29T00:24:38;3.10;99.90
36416;DHT22;22447;44.530;18.620;2022-12-29T00:27:23;3.20;99.90
36416;DHT22;22447;44.530;18.620;2022-12-29T00:30:10;3.20;99.90
36416;DHT22;22447;44.530;18.620;2022-12-29T00:32:54;3.10;99.90
36416;DHT22;22447;44.530;18.620;2022-12-29T00:35:43;3.00;99.90
36416;DHT22;22447;44.530;18.620;2022-12-29T00:38:10;3.00;99.90
36416;DHT22;22447;44.530;18.620;2022-12-29T00:40:56;2.90;99.90
36416;DHT22;22447;44.530;18.620;2022-12-29T00:43:41;2.90;99.90
36416;DHT22;22447;44.530;18.620;2022-12-29T00:46:25;3.00;99.90
36416;DHT22;22447;44.530;18.620;2022-12-29T00:48:51;2.80;99.90
36416;DHT22;22447;44.530;18.620;2022-12-29T00:51:35;2.80;99.90
36416;DHT22;22447;44.530;18.620;2022-12-29T00:54:01;2.70;99.90
36416;DHT22;22447;44.530;18.620;2022-12-29T00:56:27;2.60;99.90
36416;DHT22;22447;44.530;18.620;2022-12-29T00:58:53;2.40;99.90
36416;DHT22;22447;44.530;18.620;2022-12-29T01:01:19;2.30;99.90
36416;DHT22;22447;44.530;18.620;2022-12-29T01:03:45;2.20;99.90
36416;DHT22;22447;44.530;18.620;2022-12-29T01:06:11;2.10;99.90
36416;DHT22;22447;44.530;18.620;2022-12-29T01:08:37;2.00;99.90
36416;DHT22;22447;44.530;18.620;2022-12-29T01:11:09;1.90;99.90
36416;DHT22;22447;44.530;18.620;2022-12-29T01:13:36;2.00;99.90
36416;DHT22;22447;44.530;18.620;2022-12-29T01:16:06;1.90;99.90
36416;DHT22;22447;44.530;18.620;2022-12-29T01:18:33;1.90;99.90
36416;DHT22;22447;44.530;18.620;2022-12-29T01:21:00;1.90;99.90
36416;DHT22;22447;44.530;18.620;2022-12-29T01:23:27;1.80;99.90
36416;DHT22;22447;44.530;18.620;2022-12-29T01:25:53;1.80;99.90
36416;DHT22;22447;44.530;18.620;2022-12-29T01:28:19;1.70;99.90
36416;DHT22;22447;44.530;18.620;2022-12-29T01:30:45;1.80;99.90
36416;DHT22;22447;44.530;18.620;2022-12-29T01:33:12;1.80;99.90
36416;DHT22;22447;44.530;18.620;2022-12-29T01:35:39;1.90;99.90
36416;DHT22;22447;44.530;18.620;2022-12-29T01:38:05;1.90;99.90
36416;DHT22;22447;44.530;18.620;2022-12-29T01:40:31;1.80;99.90
36416;DHT22;22447;44.530;18.620;2022-12-29T01:42:57;1.80;99.90
36416;DHT22;22447;44.530;18.620;2022-12-29T01:45:23;1.80;99.90
36416;DHT22;22447;44.530;18.620;2022-12-29T01:47:53;1.70;99.90
36416;DHT22;22447;44.530;18.620;2022-12-29T01:50:29;1.70;99.90
36416;DHT22;22447;44.530;18.620;2022-12-29T01:55:29;1.80;99.90
36416;DHT22;22447;44.530;18.620;2022-12-29T01:57:59;1.60;99.90
36416;DHT22;22447;44.530;18.620;2022-12-29T02:00:26;1.60;99.90
36416;DHT22;22447;44.530;18.620;2022-12-29T02:02:53;1.50;99.90
36416;DHT22;22447;44.530;18.620;2022-12-29T02:05:32;1.50;99.90
36416;DHT22;22447;44.530;18.620;2022-12-29T02:08:00;1.50;99.90
36416;DHT22;22447;44.530;18.620;2022-12-29T02:10:30;1.60;99.90
36416;DHT22;22447;44.530;18.620;2022-12-29T02:12:57;1.70;99.90
36416;DHT22;22447;44.530;18.620;2022-12-29T02:18:18;1.60;99.90
36416;DHT22;22447;44.530;18.620;2022-12-29T02:21:24;1.60;99.90
36416;DHT22;22447;44.530;18.620;2022-12-29T02:24:27;1.60;99.90
36416;DHT22;22447;44.530;18.620;2022-12-29T02:27:01;1.60;99.90
36416;DHT22;22447;44.530;18.620;2022-12-29T02:32:35;1.40;99.90
36416;DHT22;22447;44.530;18.620;2022-12-29T02:37:56;1.40;99.90
36416;DHT22;22447;44.530;18.620;2022-12-29T02:40:35;1.30;99.90
36416;DHT22;22447;44.530;18.620;2022-12-29T02:43:23;1.30;99.90
36416;DHT22;22447;44.530;18.620;2022-12-29T02:45:58;1.30;99.90
36416;DHT22;22447;44.530;18.620;2022-12-29T02:49:03;1.30;99.90
36416;DHT22;22447;44.530;18.620;2022-12-29T02:51:24;1.40;99.90
36416;DHT22;22447;44.530;18.620;2022-12-29T02:53:53;1.40;99.90
36416;DHT22;22447;44.530;18.620;2022-12-29T02:56:38;1.40;99.90
36416;DHT22;22447;44.530;18.620;2022-12-29T02:59:04;1.40;99.90
36416;DHT22;22447;44.530;18.620;2022-12-29T03:01:53;1.50;99.90
36416;DHT22;22447;44.530;18.620;2022-12-29T03:15:58;1.30;99.90
36416;DHT22;22447;44.530;18.620;2022-12-29T03:21:19;1.20;99.90
36416;DHT22;22447;44.530;18.620;2022-12-29T03:24:09;1.20;99.90
36416;DHT22;22447;44.530;18.620;2022-12-29T03:26:36;1.30;99.90
36416;DHT22;22447;44.530;18.620;2022-12-29T03:29:03;1.20;99.90
36416;DHT22;22447;44.530;18.620;2022-12-29T03:31:30;1.20;99.90
36416;DHT22;22447;44.530;18.620;2022-12-29T03:33:57;1.10;99.90
36416;DHT22;22447;44.530;18.620;2022-12-29T03:36:32;1.10;99.90
36416;DHT22;22447;44.530;18.620;2022-12-29T03:39:08;1.10;99.90
36416;DHT22;22447;44.530;18.620;2022-12-29T03:41:38;1.00;99.90
36416;DHT22;22447;44.530;18.620;2022-12-29T03:44:07;1.00;99.90
36416;DHT22;22447;44.530;18.620;2022-12-29T03:46:33;1.10;99.90
36416;DHT22;22447;44.530;18.620;2022-12-29T03:49:00;1.00;99.90
36416;DHT22;22447;44.530;18.620;2022-12-29T03:51:26;1.10;99.90
36416;DHT22;22447;44.530;18.620;2022-12-29T03:53:53;1.20;99.90
36416;DHT22;22447;44.530;18.620;2022-12-29T03:56:19;1.10;99.90
36416;DHT22;22447;44.530;18.620;2022-12-29T03:58:48;1.00;99.90
36416;DHT22;22447;44.530;18.620;2022-12-29T04:01:19;1.10;99.90
36416;DHT22;22447;44.530;18.620;2022-12-29T04:03:45;1.10;99.90
36416;DHT22;22447;44.530;18.620;2022-12-29T04:06:11;1.00;99.90
36416;DHT22;22447;44.530;18.620;2022-12-29T04:08:52;1.10;99.90
36416;DHT22;22447;44.530;18.620;2022-12-29T04:11:17;1.20;99.90
36416;DHT22;22447;44.530;18.620;2022-12-29T04:13:43;1.30;99.90
36416;DHT22;22447;44.530;18.620;2022-12-29T04:16:13;1.20;99.90
36416;DHT22;22447;44.530;18.620;2022-12-29T04:18:39;1.20;99.90
36416;DHT22;22447;44.530;18.620;2022-12-29T04:21:06;1.30;99.90
36416;DHT22;22447;44.530;18.620;2022-12-29T04:23:36;1.20;99.90
36416;DHT22;22447;44.530;18.620;2022-12-29T04:26:06;1.30;99.90
36416;DHT22;22447;44.530;18.620;2022-12-29T04:28:36;1.20;99.90
36416;DHT22;22447;44.530;18.620;2022-12-29T04:31:20;1.20;99.90
36416;DHT22;22447;44.530;18.620;2022-12-29T04:33:48;1.20;99.90
36416;DHT22;22447;44.530;18.620;2022-12-29T04:36:15;1.30;99.90
36416;DHT22;22447;44.530;18.620;2022-12-29T04:38:43;1.30;99.90
36416;DHT22;22447;44.530;18.620;2022-12-29T04:41:09;1.30;99.90
36416;DHT22;22447;44.530;18.620;2022-12-29T04:43:38;1.20;99.90
36416;DHT22;22447;44.530;18.620;2022-12-29T04:46:07;1.20;99.90
36416;DHT22;22447;44.530;18.620;2022-12-29T04:48:51;1.20;99.90
36416;DHT22;22447;44.530;18.620;2022-12-29T04:51:37;1.20;99.90
36416;DHT22;22447;44.530;18.620;2022-12-29T04:54:05;1.20;99.90
36416;DHT22;22447;44.530;18.620;2022-12-29T04:56:32;1.30;99.90
36416;DHT22;22447;44.530;18.620;2022-12-29T04:58:58;1.30;99.90
36416;DHT22;22447;44.530;18.620;2022-12-29T05:01:23;1.40;99.90
36416;DHT22;22447;44.530;18.620;2022-12-29T05:03:50;1.40;99.90
36416;DHT22;22447;44.530;18.620;2022-12-29T05:06:18;1.30;99.90
36416;DHT22;22447;44.530;18.620;2022-12-29T05:08:45;1.30;99.90
36416;DHT22;22447;44.530;18.620;2022-12-29T05:11:11;1.20;99.90
36416;DHT22;22447;44.530;18.620;2022-12-29T05:13:37;1.20;99.90
36416;DHT22;22447;44.530;18.620;2022-12-29T05:16:04;1.30;99.90
36416;DHT22;22447;44.530;18.620;2022-12-29T05:18:32;1.40;99.90
36416;DHT22;22447;44.530;18.620;2022-12-29T05:20:58;1.40;99.90
36416;DHT22;22447;44.530;18.620;2022-12-29T05:23:24;1.30;99.90
36416;DHT22;22447;44.530;18.620;2022-12-29T05:25:58;1.40;99.90
36416;DHT22;22447;44.530;18.620;2022-12-29T05:28:45;1.60;99.90
36416;DHT22;22447;44.530;18.620;2022-12-29T05:31:16;1.80;99.90
36416;DHT22;22447;44.530;18.620;2022-12-29T05:33:42;1.70;99.90
36416;DHT22;22447;44.530;18.620;2022-12-29T05:36:09;1.80;99.90
36416;DHT22;22447;44.530;18.620;2022-12-29T05:38:38;1.80;99.90
36416;DHT22;22447;44.530;18.620;2022-12-29T05:41:05;1.70;99.90
36416;DHT22;22447;44.530;18.620;2022-12-29T05:43:46;1.70;99.90
36416;DHT22;22447;44.530;18.620;2022-12-29T05:46:28;1.80;99.90
36416;DHT22;22447;44.530;18.620;2022-12-29T05:49:06;1.90;99.90
36416;DHT22;22447;44.530;18.620;2022-12-29T05:51:37;1.80;99.90
36416;DHT22;22447;44.530;18.620;2022-12-29T05:54:03;1.80;99.90
36416;DHT22;22447;44.530;18.620;2022-12-29T05:56:29;1.80;99.90
36416;DHT22;22447;44.530;18.620;2022-12-29T05:58:58;1.80;99.90
36416;DHT22;22447;44.530;18.620;2022-12-29T06:01:25;1.80;99.90
36416;DHT22;22447;44.530;18.620;2022-12-29T06:03:53;1.90;99.90
36416;DHT22;22447;44.530;18.620;2022-12-29T06:06:20;1.90;99.90
36416;DHT22;22447;44.530;18.620;2022-12-29T06:08:46;2.10;99.90
36416;DHT22;22447;44.530;18.620;2022-12-29T06:11:13;2.20;99.90
36416;DHT22;22447;44.530;18.620;2022-12-29T06:13:44;2.20;99.90
36416;DHT22;22447;44.530;18.620;2022-12-29T06:16:11;2.30;99.90
36416;DHT22;22447;44.530;18.620;2022-12-29T06:18:38;2.30;99.90
36416;DHT22;22447;44.530;18.620;2022-12-29T06:21:05;2.30;99.90
36416;DHT22;22447;44.530;18.620;2022-12-29T06:23:31;2.30;99.90
36416;DHT22;22447;44.530;18.620;2022-12-29T06:25:58;2.20;99.90
36416;DHT22;22447;44.530;18.620;2022-12-29T06:28:24;2.20;99.90
36416;DHT22;22447;44.530;18.620;2022-12-29T06:30:50;2.20;99.90
36416;DHT22;22447;44.530;18.620;2022-12-29T06:33:17;2.40;99.90
36416;DHT22;22447;44.530;18.620;2022-12-29T06:35:44;2.50;99.90
36416;DHT22;22447;44.530;18.620;2022-12-29T06:38:11;2.60;99.90
36416;DHT22;22447;44.530;18.620;2022-12-29T06:40:37;2.50;99.90
36416;DHT22;22447;44.530;18.620;2022-12-29T06:43:03;2.50;99.90
36416;DHT22;22447;44.530;18.620;2022-12-29T06:45:48;2.40;99.90
36416;DHT22;22447;44.530;18.620;2022-12-29T06:48:14;2.40;99.90
36416;DHT22;22447;44.530;18.620;2022-12-29T06:50:40;2.30;99.90
36416;DHT22;22447;44.530;18.620;2022-12-29T06:53:06;2.30;99.90
36416;DHT22;22447;44.530;18.620;2022-12-29T06:55:32;2.30;99.90
36416;DHT22;22447;44.530;18.620;2022-12-29T06:58:01;2.20;99.90
36416;DHT22;22447;44.530;18.620;2022-12-29T07:00:27;2.20;99.90
36416;DHT22;22447;44.530;18.620;2022-12-29T07:02:55;2.10;99.90
36416;DHT22;22447;44.530;18.620;2022-12-29T07:05:24;2.10;99.90
36416;DHT22;22447;44.530;18.620;2022-12-29T07:07:51;2.10;99.90
36416;DHT22;22447;44.530;18.620;2022-12-29T07:10:17;2.20;99.90
36416;DHT22;22447;44.530;18.620;2022-12-29T07:12:43;2.30;99.90
36416;DHT22;22447;44.530;18.620;2022-12-29T07:15:10;2.40;99.90
36416;DHT22;22447;44.530;18.620;2022-12-29T07:17:36;2.50;99.90
36416;DHT22;22447;44.530;18.620;2022-12-29T07:20:02;2.60;99.90
36416;DHT22;22447;44.530;18.620;2022-12-29T07:22:28;2.60;99.90
36416;DHT22;22447;44.530;18.620;2022-12-29T07:24:54;2.70;99.90
36416;DHT22;22447;44.530;18.620;2022-12-29T07:27:20;3.00;99.90
36416;DHT22;22447;44.530;18.620;2022-12-29T07:29:46;3.40;99.90
36416;DHT22;22447;44.530;18.620;2022-12-29T07:32:12;4.10;99.90
36416;DHT22;22447;44.530;18.620;2022-12-29T07:34:37;5.20;99.90
36416;DHT22;22447;44.530;18.620;2022-12-29T07:37:05;6.20;99.90
36416;DHT22;22447;44.530;18.620;2022-12-29T07:39:31;6.80;99.90
36416;DHT22;22447;44.530;18.620;2022-12-29T07:41:57;8.00;99.90
36416;DHT22;22447;44.530;18.620;2022-12-29T07:44:26;8.50;98.20
36416;DHT22;22447;44.530;18.620;2022-12-29T07:47:11;9.10;95.00
36416;DHT22;22447;44.530;18.620;2022-12-29T07:49:37;9.90;93.20
36416;DHT22;22447;44.530;18.620;2022-12-29T07:52:03;10.10;90.50
36416;DHT22;22447;44.530;18.620;2022-12-29T07:54:29;10.40;86.70
36416;DHT22;22447;44.530;18.620;2022-12-29T07:56:55;11.60;85.10
36416;DHT22;22447;44.530;18.620;2022-12-29T07:59:22;12.20;78.10
36416;DHT22;22447;44.530;18.620;2022-12-29T08:01:47;12.50;74.80
36416;DHT22;22447;44.530;18.620;2022-12-29T08:04:13;12.80;69.30
36416;DHT22;22447;44.530;18.620;2022-12-29T08:06:39;12.60;74.20
36416;DHT22;22447;44.530;18.620;2022-12-29T08:09:06;13.10;70.00
36416;DHT22;22447;44.530;18.620;2022-12-29T08:11:33;12.90;68.90
36416;DHT22;22447;44.530;18.620;2022-12-29T08:13:59;12.10;73.50
36416;DHT22;22447;44.530;18.620;2022-12-29T08:16:25;12.60;72.20
36416;DHT22;22447;44.530;18.620;2022-12-29T08:18:51;11.60;71.80
36416;DHT22;22447;44.530;18.620;2022-12-29T08:21:17;10.30;76.90
36416;DHT22;22447;44.530;18.620;2022-12-29T08:23:43;10.10;79.40
36416;DHT22;22447;44.530;18.620;2022-12-29T08:26:10;9.50;84.10
36416;DHT22;22447;44.530;18.620;2022-12-29T08:28:36;9.30;91.80
36416;DHT22;22447;44.530;18.620;2022-12-29T08:31:03;10.60;89.10
36416;DHT22;22447;44.530;18.620;2022-12-29T08:33:29;11.50;83.30
36416;DHT22;22447;44.530;18.620;2022-12-29T08:36:00;12.30;80.00
36416;DHT22;22447;44.530;18.620;2022-12-29T08:38:29;13.60;72.40
36416;DHT22;22447;44.530;18.620;2022-12-29T08:40:59;13.90;72.40
36416;DHT22;22447;44.530;18.620;2022-12-29T08:43:27;14.70;66.90
36416;DHT22;22447;44.530;18.620;2022-12-29T08:46:00;14.90;64.30
36416;DHT22;22447;44.530;18.620;2022-12-29T08:48:33;14.60;63.80
36416;DHT22;22447;44.530;18.620;2022-12-29T08:50:59;14.80;62.20
36416;DHT22;22447;44.530;18.620;2022-12-29T08:53:25;13.60;65.40
36416;DHT22;22447;44.530;18.620;2022-12-29T08:55:57;12.80;66.50
36416;DHT22;22447;44.530;18.620;2022-12-29T08:58:24;12.00;69.90
36416;DHT22;22447;44.530;18.620;2022-12-29T09:00:55;11.50;71.80
36416;DHT22;22447;44.530;18.620;2022-12-29T09:03:22;10.70;74.60
36416;DHT22;22447;44.530;18.620;2022-12-29T09:05:55;10.50;80.10
36416;DHT22;22447;44.530;18.620;2022-12-29T09:08:21;10.70;79.20
36416;DHT22;22447;44.530;18.620;2022-12-29T09:10:48;10.60;79.60
36416;DHT22;22447;44.530;18.620;2022-12-29T09:13:14;10.40;81.80
36416;DHT22;22447;44.530;18.620;2022-12-29T09:15:40;9.80;86.50
36416;DHT22;22447;44.530;18.620;2022-12-29T09:18:08;9.50;87.20
36416;DHT22;22447;44.530;18.620;2022-12-29T09:20:35;9.40;90.00
36416;DHT22;22447;44.530;18.620;2022-12-29T09:23:03;9.10;92.20
36416;DHT22;22447;44.530;18.620;2022-12-29T09:25:29;9.00;94.10
36416;DHT22;22447;44.530;18.620;2022-12-29T09:27:55;8.90;97.10
36416;DHT22;22447;44.530;18.620;2022-12-29T09:30:22;8.60;97.90
36416;DHT22;22447;44.530;18.620;2022-12-29T09:32:49;8.80;98.20
36416;DHT22;22447;44.530;18.620;2022-12-29T09:35:15;8.60;98.20
36416;DHT22;22447;44.530;18.620;2022-12-29T09:37:42;8.30;99.90
36416;DHT22;22447;44.530;18.620;2022-12-29T09:40:27;8.20;99.90
36416;DHT22;22447;44.530;18.620;2022-12-29T09:48:22;10.30;99.40
36416;DHT22;22447;44.530;18.620;2022-12-29T09:50:53;11.40;93.30
36416;DHT22;22447;44.530;18.620;2022-12-29T09:53:31;12.20;90.50
36416;DHT22;22447;44.530;18.620;2022-12-29T09:56:02;13.20;84.60
36416;DHT22;22447;44.530;18.620;2022-12-29T09:58:39;13.70;79.50
36416;DHT22;22447;44.530;18.620;2022-12-29T10:01:12;13.80;77.40
36416;DHT22;22447;44.530;18.620;2022-12-29T10:19:30;16.50;60.50
36416;DHT22;22447;44.530;18.620;2022-12-29T10:24:40;17.30;59.90
36416;DHT22;22447;44.530;18.620;2022-12-29T10:27:13;17.80;58.00
36416;DHT22;22447;44.530;18.620;2022-12-29T10:29:54;17.70;57.40
36416;DHT22;22447;44.530;18.620;2022-12-29T10:32:36;17.40;57.40
36416;DHT22;22447;44.530;18.620;2022-12-29T10:35:20;16.30;59.10
36416;DHT22;22447;44.530;18.620;2022-12-29T10:40:42;16.20;61.50
36416;DHT22;22447;44.530;18.620;2022-12-29T10:45:48;16.00;63.00
36416;DHT22;22447;44.530;18.620;2022-12-29T10:48:41;15.40;64.10
36416;DHT22;22447;44.530;18.620;2022-12-29T10:51:23;15.20;65.90
36416;DHT22;22447;44.530;18.620;2022-12-29T10:57:00;15.30;68.30
36416;DHT22;22447;44.530;18.620;2022-12-29T10:59:30;15.20;67.50
36416;DHT22;22447;44.530;18.620;2022-12-29T11:07:24;15.50;69.70
36416;DHT22;22447;44.530;18.620;2022-12-29T11:09:51;16.10;68.10
36416;DHT22;22447;44.530;18.620;2022-12-29T11:12:29;16.90;65.50
36416;DHT22;22447;44.530;18.620;2022-12-29T11:15:12;17.60;60.60
36416;DHT22;22447;44.530;18.620;2022-12-29T11:17:53;17.70;62.30
36416;DHT22;22447;44.530;18.620;2022-12-29T11:20:36;18.50;57.90
36416;DHT22;22447;44.530;18.620;2022-12-29T11:23:05;18.30;59.40
36416;DHT22;22447;44.530;18.620;2022-12-29T11:25:31;18.80;57.60
36416;DHT22;22447;44.530;18.620;2022-12-29T11:28:00;19.40;57.90
36416;DHT22;22447;44.530;18.620;2022-12-29T11:30:30;20.30;54.80
36416;DHT22;22447;44.530;18.620;2022-12-29T11:32:57;20.80;52.60
36416;DHT22;22447;44.530;18.620;2022-12-29T11:35:41;21.10;51.80
36416;DHT22;22447;44.530;18.620;2022-12-29T11:38:34;20.80;52.00
36416;DHT22;22447;44.530;18.620;2022-12-29T11:41:02;20.00;52.30
36416;DHT22;22447;44.530;18.620;2022-12-29T11:43:41;20.00;53.50
36416;DHT22;22447;44.530;18.620;2022-12-29T11:46:31;19.90;53.90
36416;DHT22;22447;44.530;18.620;2022-12-29T11:49:01;20.00;54.00
36416;DHT22;22447;44.530;18.620;2022-12-29T11:51:43;20.90;50.90
36416;DHT22;22447;44.530;18.620;2022-12-29T11:54:22;20.20;50.60
36416;DHT22;22447;44.530;18.620;2022-12-29T11:56:50;19.70;52.20
36416;DHT22;22447;44.530;18.620;2022-12-29T11:59:36;19.30;52.40
36416;DHT22;22447;44.530;18.620;2022-12-29T12:10:30;18.70;54.40
36416;DHT22;22447;44.530;18.620;2022-12-29T12:15:46;18.20;56.00
36416;DHT22;22447;44.530;18.620;2022-12-29T12:18:24;18.10;57.40
36416;DHT22;22447;44.530;18.620;2022-12-29T12:26:42;18.40;55.30
36416;DHT22;22447;44.530;18.620;2022-12-29T12:29:58;17.90;56.40
36416;DHT22;22447;44.530;18.620;2022-12-29T12:35:13;17.50;57.80
36416;DHT22;22447;44.530;18.620;2022-12-29T12:59:37;17.20;61.10
36416;DHT22;22447;44.530;18.620;2022-12-29T13:10:56;16.80;63.70
36416;DHT22;22447;44.530;18.620;2022-12-29T13:28:01;16.60;65.40
36416;DHT22;22447;44.530;18.620;2022-12-29T13:36:34;16.60;67.90
36416;DHT22;22447;44.530;18.620;2022-12-29T13:39:08;16.80;68.50
36416;DHT22;22447;44.530;18.620;2022-12-29T13:41:51;17.00;65.90
36416;DHT22;22447;44.530;18.620;2022-12-29T13:44:40;17.00;64.80
36416;DHT22;22447;44.530;18.620;2022-12-29T13:49:53;16.80;67.00
36416;DHT22;22447;44.530;18.620;2022-12-29T13:58:53;16.90;67.80
36416;DHT22;22447;44.530;18.620;2022-12-29T14:03:57;17.80;63.90
36416;DHT22;22447;44.530;18.620;2022-12-29T14:06:24;17.60;64.40
36416;DHT22;22447;44.530;18.620;2022-12-29T14:09:04;17.60;64.50
36416;DHT22;22447;44.530;18.620;2022-12-29T14:11:39;17.80;64.90
36416;DHT22;22447;44.530;18.620;2022-12-29T14:14:28;17.60;65.10
36416;DHT22;22447;44.530;18.620;2022-12-29T14:17:11;17.00;66.30
36416;DHT22;22447;44.530;18.620;2022-12-29T14:19:43;16.60;68.40
36416;DHT22;22447;44.530;18.620;2022-12-29T14:22:11;16.30;69.00
36416;DHT22;22447;44.530;18.620;2022-12-29T14:24:46;15.80;68.80
36416;DHT22;22447;44.530;18.620;2022-12-29T14:35:00;15.30;74.90
36416;DHT22;22447;44.530;18.620;2022-12-29T14:37:34;15.40;76.00
36416;DHT22;22447;44.530;18.620;2022-12-29T14:40:23;15.20;75.70
36416;DHT22;22447;44.530;18.620;2022-12-29T14:42:52;15.00;76.40
36416;DHT22;22447;44.530;18.620;2022-12-29T14:47:49;14.80;79.00
36416;DHT22;22447;44.530;18.620;2022-12-29T14:50:24;14.40;81.10
36416;DHT22;22447;44.530;18.620;2022-12-29T14:52:56;14.20;80.90
36416;DHT22;22447;44.530;18.620;2022-12-29T15:00:40;13.90;87.50
36416;DHT22;22447;44.530;18.620;2022-12-29T15:03:20;13.70;89.70
36416;DHT22;22447;44.530;18.620;2022-12-29T15:05:53;13.40;90.40
36416;DHT22;22447;44.530;18.620;2022-12-29T15:08:24;13.20;91.00
36416;DHT22;22447;44.530;18.620;2022-12-29T15:10:55;12.80;95.10
36416;DHT22;22447;44.530;18.620;2022-12-29T15:13:24;12.50;97.30
36416;DHT22;22447;44.530;18.620;2022-12-29T15:15:51;12.40;98.80
36416;DHT22;22447;44.530;18.620;2022-12-29T15:18:31;12.20;99.90
36416;DHT22;22447;44.530;18.620;2022-12-29T15:21:05;12.10;99.90
36416;DHT22;22447;44.530;18.620;2022-12-29T15:23:35;11.90;99.90
36416;DHT22;22447;44.530;18.620;2022-12-29T15:26:05;11.90;99.90
36416;DHT22;22447;44.530;18.620;2022-12-29T15:28:40;11.80;99.90
36416;DHT22;22447;44.530;18.620;2022-12-29T15:33:42;11.40;99.90
36416;DHT22;22447;44.530;18.620;2022-12-29T15:36:20;11.30;99.90
36416;DHT22;22447;44.530;18.620;2022-12-29T15:38:47;11.20;99.90
36416;DHT22;22447;44.530;18.620;2022-12-29T15:44:24;11.10;99.90
36416;DHT22;22447;44.530;18.620;2022-12-29T15:46:51;11.00;99.90
36416;DHT22;22447;44.530;18.620;2022-12-29T15:49:18;10.90;99.90
36416;DHT22;22447;44.530;18.620;2022-12-29T15:51:44;10.70;99.90
36416;DHT22;22447;44.530;18.620;2022-12-29T15:54:20;10.70;99.90
36416;DHT22;22447;44.530;18.620;2022-12-29T15:56:48;10.60;99.90
36416;DHT22;22447;44.530;18.620;2022-12-29T15:59:29;10.50;99.90
36416;DHT22;22447;44.530;18.620;2022-12-29T16:01:57;10.50;99.90
36416;DHT22;22447;44.530;18.620;2022-12-29T16:04:32;10.30;99.90
36416;DHT22;22447;44.530;18.620;2022-12-29T16:07:03;10.20;99.90
36416;DHT22;22447;44.530;18.620;2022-12-29T16:09:35;10.10;99.90
36416;DHT22;22447;44.530;18.620;2022-12-29T16:12:07;10.00;99.90
36416;DHT22;22447;44.530;18.620;2022-12-29T16:14:43;9.90;99.90
36416;DHT22;22447;44.530;18.620;2022-12-29T16:17:13;9.80;99.90
36416;DHT22;22447;44.530;18.620;2022-12-29T16:19:41;9.70;99.90
36416;DHT22;22447;44.530;18.620;2022-12-29T16:22:38;9.50;99.90
36416;DHT22;22447;44.530;18.620;2022-12-29T16:25:29;9.40;99.90
36416;DHT22;22447;44.530;18.620;2022-12-29T16:27:58;9.30;99.90
36416;DHT22;22447;44.530;18.620;2022-12-29T16:30:26;9.10;99.90
36416;DHT22;22447;44.530;18.620;2022-12-29T16:32:55;9.10;99.90
36416;DHT22;22447;44.530;18.620;2022-12-29T16:35:26;9.00;99.90
36416;DHT22;22447;44.530;18.620;2022-12-29T16:38:21;8.80;99.90
36416;DHT22;22447;44.530;18.620;2022-12-29T16:43:27;8.60;99.90
36416;DHT22;22447;44.530;18.620;2022-12-29T16:48:36;8.40;99.90
36416;DHT22;22447;44.530;18.620;2022-12-29T16:51:17;8.50;99.90
36416;DHT22;22447;44.530;18.620;2022-12-29T16:53:52;8.40;99.90
36416;DHT22;22447;44.530;18.620;2022-12-29T16:56:23;8.50;99.90
36416;DHT22;22447;44.530;18.620;2022-12-29T16:59:09;8.40;99.90
36416;DHT22;22447;44.530;18.620;2022-12-29T17:01:44;8.40;99.90
36416;DHT22;22447;44.530;18.620;2022-12-29T17:04:15;8.50;99.90
36416;DHT22;22447;44.530;18.620;2022-12-29T17:06:41;8.40;99.90
36416;DHT22;22447;44.530;18.620;2022-12-29T17:09:28;8.50;99.90
36416;DHT22;22447;44.530;18.620;2022-12-29T17:11:55;8.40;99.90
36416;DHT22;22447;44.530;18.620;2022-12-29T17:16:55;8.40;99.90
36416;DHT22;22447;44.530;18.620;2022-12-29T17:20:09;8.30;99.90
36416;DHT22;22447;44.530;18.620;2022-12-29T17:22:25;8.30;99.90
36416;DHT22;22447;44.530;18.620;2022-12-29T17:24:54;8.30;99.90
36416;DHT22;22447;44.530;18.620;2022-12-29T17:27:36;8.30;99.90
36416;DHT22;22447;44.530;18.620;2022-12-29T17:30:18;8.30;99.90
36416;DHT22;22447;44.530;18.620;2022-12-29T17:32:53;8.30;99.90
36416;DHT22;22447;44.530;18.620;2022-12-29T17:35:21;8.40;99.90
36416;DHT22;22447;44.530;18.620;2022-12-29T17:37:48;8.30;99.90
36416;DHT22;22447;44.530;18.620;2022-12-29T17:40:19;8.40;99.90
36416;DHT22;22447;44.530;18.620;2022-12-29T17:42:49;8.40;99.90
36416;DHT22;22447;44.530;18.620;2022-12-29T17:45:17;8.40;99.90
36416;DHT22;22447;44.530;18.620;2022-12-29T17:47:43;8.50;99.90
36416;DHT22;22447;44.530;18.620;2022-12-29T17:50:13;8.50;99.90
36416;DHT22;22447;44.530;18.620;2022-12-29T17:52:40;8.50;99.90
36416;DHT22;22447;44.530;18.620;2022-12-29T17:55:14;8.50;99.90
36416;DHT22;22447;44.530;18.620;2022-12-29T17:57:41;8.60;99.90
36416;DHT22;22447;44.530;18.620;2022-12-29T18:00:23;8.60;99.90
36416;DHT22;22447;44.530;18.620;2022-12-29T18:02:52;8.60;99.90
36416;DHT22;22447;44.530;18.620;2022-12-29T18:05:21;8.70;99.90
36416;DHT22;22447;44.530;18.620;2022-12-29T18:07:52;8.70;99.90
36416;DHT22;22447;44.530;18.620;2022-12-29T18:10:20;8.70;99.90
36416;DHT22;22447;44.530;18.620;2022-12-29T18:12:52;8.70;99.90
36416;DHT22;22447;44.530;18.620;2022-12-29T18:17:47;8.70;99.90
36416;DHT22;22447;44.530;18.620;2022-12-29T18:20:13;8.70;99.90
36416;DHT22;22447;44.530;18.620;2022-12-29T18:22:39;8.70;99.90
36416;DHT22;22447;44.530;18.620;2022-12-29T18:28:16;8.50;99.90
36416;DHT22;22447;44.530;18.620;2022-12-29T18:30:42;8.50;99.90
36416;DHT22;22447;44.530;18.620;2022-12-29T18:33:14;8.40;99.90
36416;DHT22;22447;44.530;18.620;2022-12-29T18:35:51;8.20;99.90
36416;DHT22;22447;44.530;18.620;2022-12-29T18:38:17;8.20;99.90
36416;DHT22;22447;44.530;18.620;2022-12-29T18:40:43;8.10;99.90
36416;DHT22;22447;44.530;18.620;2022-12-29T18:43:15;8.00;99.90
36416;DHT22;22447;44.530;18.620;2022-12-29T18:45:41;7.90;99.90
36416;DHT22;22447;44.530;18.620;2022-12-29T18:48:11;8.00;99.90
36416;DHT22;22447;44.530;18.620;2022-12-29T18:50:37;8.00;99.90
36416;DHT22;22447;44.530;18.620;2022-12-29T18:53:03;7.90;99.90